createdAt,value
2022-08-26T00:02:24.513Z,6.40
2022-08-26T00:06:26.631Z,6.25
2022-08-26T00:10:29.126Z,7.13
2022-08-26T00:14:31.800Z,5.82
2022-08-26T00:18:38.730Z,6.10
2022-08-26T00:22:43.596Z,6.38
2022-08-26T00:26:46.938Z,6.43
2022-08-26T00:30:52.392Z,6.32
2022-08-26T00:34:54.903Z,6.60
2022-08-26T00:39:00.058Z,7.15
2022-08-26T00:43:09.337Z,6.25
2022-08-26T00:47:27.668Z,6.47
2022-08-26T00:51:42.723Z,6.72
2022-08-26T00:55:46.055Z,6.97
2022-08-26T00:59:53.233Z,6.78
2022-08-26T01:03:56.858Z,6.80
2022-08-26T01:07:59.434Z,6.45
2022-08-26T01:12:03.278Z,6.15
2022-08-26T01:16:11.370Z,6.72
2022-08-26T01:21:00.143Z,6.90
2022-08-26T01:25:04.320Z,6.65
2022-08-26T01:29:09.448Z,6.82
2022-08-26T01:33:19.438Z,6.43
2022-08-26T01:37:29.554Z,7.33
2022-08-26T01:41:33.305Z,7.35
2022-08-26T01:45:39.617Z,6.68
2022-08-26T01:49:45.363Z,7.45
2022-08-26T01:53:47.674Z,9.18
2022-08-26T01:57:56.319Z,7.60
2022-08-26T02:01:58.808Z,7.13
2022-08-26T02:06:09.298Z,6.82
2022-08-26T02:10:13.272Z,8.00
2022-08-26T02:14:23.084Z,6.88
2022-08-26T02:18:33.206Z,7.90
2022-08-26T02:22:35.637Z,7.07
2022-08-26T02:26:38.102Z,7.53
2022-08-26T02:30:42.051Z,7.78
2022-08-26T02:34:44.490Z,8.63
2022-08-26T02:38:47.212Z,8.55
2022-08-26T02:42:52.744Z,6.90
2022-08-26T02:46:55.966Z,7.07
2022-08-26T02:51:00.835Z,7.78
2022-08-26T02:55:04.623Z,7.57
2022-08-26T02:59:06.846Z,7.25
2022-08-26T03:03:09.714Z,8.50
2022-08-26T03:07:12.300Z,6.47
2022-08-26T03:11:14.962Z,6.63
2022-08-26T03:15:18.586Z,7.57
2022-08-26T03:19:23.475Z,7.88
2022-08-26T03:23:26.117Z,6.68
2022-08-26T03:27:28.510Z,7.18
2022-08-26T03:31:35.069Z,8.10
2022-08-26T03:35:41.146Z,7.57
2022-08-26T03:39:43.238Z,6.40
2022-08-26T03:43:47.899Z,7.55
2022-08-26T03:47:50.037Z,7.57
2022-08-26T03:51:52.318Z,6.75
2022-08-26T03:55:54.420Z,8.25
2022-08-26T03:59:56.883Z,7.40
2022-08-26T04:04:00.373Z,7.78
2022-08-26T04:08:05.725Z,7.90
2022-08-26T04:12:08.656Z,7.75
2022-08-26T04:16:11.028Z,8.57
2022-08-26T04:20:16.253Z,9.23
2022-08-26T04:24:21.437Z,8.68
2022-08-26T04:28:23.575Z,8.20
2022-08-26T04:32:25.964Z,7.93
2022-08-26T04:36:29.194Z,6.65
2022-08-26T04:40:32.044Z,8.30
2022-08-26T04:44:36.207Z,6.63
2022-08-26T04:48:38.437Z,7.50
2022-08-26T04:52:41.030Z,7.22
2022-08-26T04:56:45.833Z,7.32
2022-08-26T05:00:49.377Z,6.35
2022-08-26T05:04:52.483Z,6.38
2022-08-26T05:08:54.902Z,5.57
2022-08-26T05:13:00.380Z,6.28
2022-08-26T05:17:03.365Z,5.60
2022-08-26T05:21:07.641Z,6.00
2022-08-26T05:25:10.004Z,5.80
2022-08-26T05:29:13.005Z,5.20
2022-08-26T05:33:16.778Z,5.05
2022-08-26T05:37:19.383Z,5.72
2022-08-26T05:41:42.359Z,5.53
2022-08-26T05:45:48.408Z,5.47
2022-08-26T05:49:51.820Z,6.22
2022-08-26T05:53:55.118Z,5.30
2022-08-26T05:57:57.406Z,4.68
2022-08-26T06:01:59.823Z,5.45
2022-08-26T06:06:07.510Z,5.90
2022-08-26T06:10:31.434Z,5.95
2022-08-26T06:14:33.929Z,5.43
2022-08-26T06:18:40.309Z,5.43
2022-08-26T06:23:01.075Z,5.30
2022-08-26T06:27:08.419Z,6.18
2022-08-26T06:31:10.552Z,5.82
2022-08-26T06:35:13.490Z,5.72
2022-08-26T06:39:19.246Z,5.35
2022-08-26T06:43:26.730Z,5.53
2022-08-26T06:47:29.538Z,5.53
2022-08-26T06:51:36.227Z,6.28
2022-08-26T06:55:46.469Z,5.10
2022-08-26T06:59:51.118Z,5.40
2022-08-26T07:03:57.139Z,4.75
2022-08-26T07:08:00.421Z,5.75
2022-08-26T07:12:04.481Z,5.20
2022-08-26T07:16:12.189Z,5.25
2022-08-26T07:20:15.714Z,5.68
2022-08-26T07:24:19.491Z,5.25
2022-08-26T07:28:23.048Z,6.45
2022-08-26T07:32:25.380Z,5.30
2022-08-26T07:36:29.400Z,5.80
2022-08-26T07:40:34.185Z,5.30
2022-08-26T07:44:37.680Z,5.38
2022-08-26T07:48:40.171Z,6.00
2022-08-26T07:52:49.060Z,5.43
2022-08-26T07:56:51.623Z,5.47
2022-08-26T08:00:54.353Z,5.10
2022-08-26T08:04:58.578Z,5.50
2022-08-26T08:09:01.205Z,6.15
2022-08-26T08:13:07.248Z,6.07
2022-08-26T08:21:21.643Z,5.28
2022-08-26T08:25:24.650Z,5.47
2022-08-26T08:29:30.370Z,5.20
2022-08-26T08:33:33.905Z,6.07
2022-08-26T08:37:36.652Z,5.82
2022-08-26T08:42:16.226Z,5.38
2022-08-26T08:46:19.673Z,6.07
2022-08-26T08:50:26.311Z,5.68
2022-08-26T08:54:31.753Z,4.80
2022-08-26T08:58:35.994Z,5.13
2022-08-26T09:03:06.306Z,5.55
2022-08-26T09:07:14.599Z,5.28
2022-08-26T09:11:18.801Z,4.70
2022-08-26T09:15:30.220Z,4.47
2022-08-26T09:19:50.460Z,5.03
2022-08-26T09:23:56.851Z,4.68
2022-08-26T09:28:00.444Z,5.13
2022-08-26T09:32:24.408Z,5.00
2022-08-26T09:36:41.215Z,4.80
2022-08-26T09:40:59.449Z,5.25
2022-08-26T09:45:09.713Z,4.70
2022-08-26T09:49:39.275Z,4.63
2022-08-26T09:53:53.782Z,5.57
2022-08-26T09:57:58.214Z,4.82
2022-08-26T10:02:33.803Z,5.05
2022-08-26T10:07:02.280Z,5.05
2022-08-26T10:11:18.792Z,5.07
2022-08-26T10:15:25.405Z,5.05
2022-08-26T10:19:57.068Z,4.38
2022-08-26T10:24:02.323Z,4.63
2022-08-26T10:28:19.052Z,5.20
2022-08-26T10:32:31.449Z,5.07
2022-08-26T10:37:13.895Z,5.03
2022-08-26T10:41:21.114Z,5.30
2022-08-26T10:45:28.136Z,5.28
2022-08-26T10:49:30.298Z,5.10
2022-08-26T10:53:51.606Z,5.10
2022-08-26T10:58:29.109Z,4.45
2022-08-26T11:02:50.510Z,5.13
2022-08-26T11:07:28.568Z,5.30
2022-08-26T11:11:39.720Z,4.88
2022-08-26T11:15:42.004Z,5.13
2022-08-26T11:20:03.322Z,4.57
2022-08-26T11:24:30.322Z,5.35
2022-08-26T11:28:45.008Z,4.72
2022-08-26T11:32:53.954Z,5.35
2022-08-26T11:37:00.778Z,5.20
2022-08-26T11:41:09.049Z,5.07
2022-08-26T11:45:14.508Z,5.72
2022-08-26T11:49:17.412Z,5.85
2022-08-26T11:53:20.446Z,5.30
2022-08-26T11:57:25.033Z,4.68
2022-08-26T12:01:36.147Z,5.25
2022-08-26T12:05:47.971Z,5.43
2022-08-26T12:09:54.814Z,4.88
2022-08-26T12:14:01.806Z,4.80
2022-08-26T12:18:28.783Z,4.70
2022-08-26T12:22:36.219Z,5.22
2022-08-26T12:26:39.628Z,5.13
2022-08-26T12:30:43.272Z,4.95
2022-08-26T12:34:49.254Z,5.30
2022-08-26T12:38:53.029Z,4.60
2022-08-26T12:43:00.789Z,5.57
2022-08-26T12:47:22.889Z,5.65
2022-08-26T12:51:42.094Z,4.88
2022-08-26T12:55:48.282Z,5.85
2022-08-26T12:59:51.138Z,5.47
2022-08-26T13:03:53.717Z,5.75
2022-08-26T13:08:28.270Z,5.72
2022-08-26T13:12:33.990Z,5.55
2022-08-26T13:16:37.850Z,6.20
2022-08-26T13:20:44.334Z,7.00
2022-08-26T13:24:46.769Z,6.22
2022-08-26T13:29:01.330Z,6.28
2022-08-26T13:33:06.941Z,6.18
2022-08-26T13:37:10.794Z,6.43
2022-08-26T13:41:13.117Z,6.88
2022-08-26T13:45:18.146Z,5.85
2022-08-26T13:49:20.626Z,5.82
2022-08-26T13:53:23.610Z,5.93
2022-08-26T13:57:28.263Z,6.13
2022-08-26T14:01:32.268Z,5.97
2022-08-26T14:05:34.946Z,5.80
2022-08-26T14:09:38.540Z,6.22
2022-08-26T14:13:41.204Z,6.22
2022-08-26T14:17:44.110Z,6.20
2022-08-26T14:21:46.678Z,6.15
2022-08-26T14:25:48.929Z,6.68
2022-08-26T14:29:52.125Z,6.72
2022-08-26T14:33:57.591Z,6.78
2022-08-26T14:38:00.130Z,7.13
2022-08-26T14:42:02.274Z,7.45
2022-08-26T14:46:04.675Z,6.40
2022-08-26T14:50:07.462Z,6.82
2022-08-26T14:54:13.950Z,6.85
2022-08-26T14:58:16.117Z,6.97
2022-08-26T15:02:29.768Z,6.47
2022-08-26T15:06:36.321Z,6.03
2022-08-26T15:10:38.992Z,6.22
2022-08-26T15:14:41.193Z,6.40
2022-08-26T15:18:43.470Z,6.00
2022-08-26T15:22:45.629Z,6.43
2022-08-26T15:26:48.942Z,5.28
2022-08-26T15:30:51.367Z,6.07
2022-08-26T15:34:54.796Z,5.60
2022-08-26T15:38:58.738Z,4.70
2022-08-26T15:43:18.522Z,5.15
2022-08-26T15:47:24.085Z,5.93
2022-08-26T15:51:35.988Z,5.05
2022-08-26T15:55:48.887Z,5.85
2022-08-26T15:59:52.361Z,4.47
2022-08-26T16:03:55.661Z,5.18
2022-08-26T16:07:57.953Z,4.78
2022-08-26T16:12:00.368Z,4.43
2022-08-26T16:16:03.658Z,5.30
2022-08-26T16:20:08.002Z,6.07
2022-08-26T16:24:11.190Z,5.00
2022-08-26T16:28:14.072Z,5.25
2022-08-26T16:32:31.229Z,5.10
2022-08-26T16:36:34.726Z,5.10
2022-08-26T16:40:38.993Z,5.03
2022-08-26T16:44:44.805Z,5.35
2022-08-26T16:48:47.966Z,4.55
2022-08-26T16:52:55.753Z,4.95
2022-08-26T16:56:58.334Z,5.15
2022-08-26T17:01:00.516Z,5.32
2022-08-26T17:05:03.625Z,5.78
2022-08-26T17:09:05.920Z,4.90
2022-08-26T17:13:08.447Z,5.32
2022-08-26T17:17:10.721Z,5.20
2022-08-26T17:21:14.247Z,5.22
2022-08-26T17:25:20.702Z,5.78
2022-08-26T17:29:23.058Z,4.88
2022-08-26T17:33:25.855Z,5.05
2022-08-26T17:37:28.432Z,5.65
2022-08-26T17:41:30.843Z,5.93
2022-08-26T17:45:33.474Z,6.40
2022-08-26T17:49:35.665Z,6.95
2022-08-26T17:53:38.622Z,6.03
2022-08-26T17:57:42.384Z,6.35
2022-08-26T18:01:44.856Z,6.75
2022-08-26T18:05:49.016Z,6.18
2022-08-26T18:09:52.160Z,6.55
2022-08-26T18:13:54.414Z,6.40
2022-08-26T18:17:56.862Z,7.47
2022-08-26T18:21:59.209Z,6.40
2022-08-26T18:26:02.201Z,6.97
2022-08-26T18:30:11.368Z,6.80
2022-08-26T18:34:17.603Z,7.88
2022-08-26T18:38:20.212Z,7.00
2022-08-26T18:42:25.266Z,7.63
2022-08-26T18:46:28.669Z,8.98
2022-08-26T18:50:31.344Z,7.90
2022-08-26T18:54:33.571Z,8.57
2022-08-26T18:58:36.089Z,8.25
2022-08-26T19:02:38.837Z,9.13
2022-08-26T19:06:41.963Z,8.45
2022-08-26T19:10:44.010Z,7.95
2022-08-26T19:14:46.647Z,8.73
2022-08-26T19:18:50.498Z,9.57
2022-08-26T19:22:52.898Z,9.82
2022-08-26T19:26:57.767Z,9.15
2022-08-26T19:31:01.144Z,8.88
2022-08-26T19:42:14.127Z,9.23
2022-08-26T20:16:36.514Z,10.95
2022-08-26T20:20:57.382Z,10.63
2022-08-26T20:24:59.726Z,9.80
2022-08-26T20:29:02.715Z,10.80
2022-08-26T20:33:05.043Z,10.18
2022-08-26T20:37:08.831Z,10.32
2022-08-26T20:41:11.899Z,9.57
2022-08-26T20:45:14.446Z,9.90
2022-08-26T20:49:20.707Z,11.10
2022-08-26T20:53:23.032Z,9.50
2022-08-26T20:57:28.325Z,10.07
2022-08-26T21:01:34.964Z,10.20
2022-08-26T21:05:37.181Z,9.80
2022-08-26T21:09:40.153Z,8.98
2022-08-26T21:14:03.885Z,10.00
2022-08-26T21:18:07.112Z,9.20
2022-08-26T21:22:09.428Z,9.65
2022-08-26T21:26:14.861Z,9.88
2022-08-26T21:30:17.113Z,8.98
2022-08-26T21:34:19.730Z,10.38
2022-08-26T21:38:22.365Z,10.15
2022-08-26T21:42:26.767Z,9.95
2022-08-26T21:46:30.522Z,10.18
2022-08-26T21:50:32.925Z,11.52
2022-08-26T21:54:35.093Z,10.45
2022-08-26T21:58:38.659Z,10.13
2022-08-26T22:02:40.813Z,9.80
2022-08-26T22:06:47.392Z,9.35
2022-08-26T22:10:55.366Z,9.23
2022-08-26T22:14:57.825Z,10.30
2022-08-26T22:18:59.985Z,9.43
2022-08-26T22:23:02.553Z,9.65
2022-08-26T22:27:04.945Z,10.02
2022-08-26T22:31:12.064Z,9.45
2022-08-26T22:35:28.376Z,9.15
2022-08-26T22:39:32.025Z,9.48
2022-08-26T22:43:34.327Z,9.80
2022-08-26T22:47:36.869Z,9.75
2022-08-26T22:51:39.328Z,10.38
2022-08-26T22:55:43.495Z,10.95
2022-08-26T22:59:46.181Z,10.38
2022-08-26T23:03:48.670Z,10.40
2022-08-26T23:07:51.010Z,11.77
2022-08-26T23:11:56.168Z,11.10
2022-08-26T23:16:06.758Z,11.30
2022-08-26T23:20:11.998Z,10.85
2022-08-26T23:24:14.323Z,11.23
2022-08-26T23:28:17.201Z,10.35
2022-08-26T23:32:19.466Z,11.35
2022-08-26T23:36:22.920Z,12.05
2022-08-26T23:40:32.514Z,11.00
2022-08-26T23:44:35.191Z,11.70
2022-08-26T23:48:37.879Z,11.80
2022-08-26T23:52:58.752Z,11.13
2022-08-26T23:57:00.869Z,10.45
